createdAt,value
2018-12-12T00:00:03.101Z,11.63
2018-12-12T00:02:31.847Z,12.55
2018-12-12T00:05:00.591Z,12.77
2018-12-12T00:07:28.759Z,12.57
2018-12-12T00:09:56.997Z,11.97
2018-12-12T00:29:44.766Z,13.17
2018-12-12T00:32:13.296Z,14.00
2018-12-12T00:34:41.673Z,13.90
2018-12-12T00:37:09.828Z,13.07
2018-12-12T00:39:37.915Z,13.67
2018-12-12T00:42:06.815Z,14.33
2018-12-12T00:44:35.226Z,13.83
2018-12-12T00:47:03.622Z,14.17
2018-12-12T00:49:31.997Z,13.53
2018-12-12T00:52:00.352Z,14.07
2018-12-12T00:54:28.913Z,14.53
2018-12-12T00:56:57.148Z,15.03
2018-12-12T00:59:25.276Z,16.23
2018-12-12T01:01:53.596Z,16.37
2018-12-12T01:04:22.633Z,17.33
2018-12-12T01:06:51.187Z,15.37
2018-12-12T01:09:19.249Z,16.97
2018-12-12T01:11:52.815Z,16.60
2018-12-12T01:14:20.997Z,16.17
2018-12-12T01:16:49.125Z,16.13
2018-12-12T01:19:17.262Z,16.60
2018-12-12T01:21:45.855Z,18.10
2018-12-12T01:24:14.575Z,17.93
2018-12-12T01:26:42.648Z,18.17
2018-12-12T01:29:10.715Z,16.40
2018-12-12T01:31:38.810Z,17.80
2018-12-12T01:34:06.978Z,16.87
2018-12-12T01:36:35.160Z,17.55
2018-12-12T01:39:05.588Z,18.10
2018-12-12T01:41:33.797Z,18.50
2018-12-12T01:44:01.902Z,18.40
2018-12-12T01:46:30.455Z,17.60
2018-12-12T01:48:58.531Z,18.80
2018-12-12T01:51:26.636Z,18.13
2018-12-12T01:53:54.838Z,17.35
2018-12-12T01:56:23.147Z,17.97
2018-12-12T01:58:51.532Z,18.93
2018-12-12T02:01:19.557Z,18.67
2018-12-12T02:03:48.557Z,18.83
2018-12-12T02:06:16.637Z,17.53
2018-12-12T02:08:46.176Z,18.53
2018-12-12T02:11:15.005Z,19.20
2018-12-12T02:13:43.059Z,18.50
2018-12-12T02:16:11.473Z,18.95
2018-12-12T02:18:42.066Z,18.43
2018-12-12T02:21:10.134Z,17.87
2018-12-12T02:23:38.211Z,18.93
2018-12-12T02:26:06.385Z,18.07
2018-12-12T02:28:34.526Z,16.87
2018-12-12T02:31:02.812Z,18.90
2018-12-12T02:33:30.965Z,19.37
2018-12-12T02:35:59.099Z,17.97
2018-12-12T02:38:27.255Z,18.03
2018-12-12T02:40:55.466Z,20.27
2018-12-12T02:43:23.598Z,20.20
2018-12-12T02:45:51.693Z,18.93
2018-12-12T02:48:21.233Z,17.63
2018-12-12T02:50:49.302Z,17.50
2018-12-12T02:53:17.358Z,19.03
2018-12-12T02:55:46.116Z,18.30
2018-12-12T02:58:14.723Z,17.33
2018-12-12T03:00:42.894Z,16.42
2018-12-12T03:03:11.033Z,18.57
2018-12-12T03:05:39.100Z,19.23
2018-12-12T03:08:07.158Z,19.67
2018-12-12T03:10:36.880Z,19.33
2018-12-12T03:13:05.013Z,19.43
2018-12-12T03:15:33.336Z,19.57
2018-12-12T03:35:21.271Z,17.43
2018-12-12T03:37:49.399Z,18.52
2018-12-12T03:40:17.931Z,18.53
2018-12-12T03:42:47.016Z,20.23
2018-12-12T03:45:15.783Z,20.23
2018-12-12T03:47:44.109Z,21.70
2018-12-12T03:50:12.216Z,20.05
2018-12-12T03:52:40.312Z,19.53
2018-12-12T03:55:08.476Z,18.53
2018-12-12T03:57:36.659Z,20.13
2018-12-12T04:00:05.467Z,19.47
2018-12-12T04:02:33.668Z,20.30
2018-12-12T04:05:01.791Z,20.17
2018-12-12T04:07:29.960Z,20.27
2018-12-12T04:09:58.120Z,19.70
2018-12-12T04:12:26.245Z,20.17
2018-12-12T04:14:54.523Z,20.72
2018-12-12T04:17:24.515Z,19.95
2018-12-12T04:19:52.634Z,21.07
2018-12-12T04:22:21.151Z,19.00
2018-12-12T04:42:09.752Z,19.67
2018-12-12T04:44:37.820Z,20.33
2018-12-12T04:47:07.003Z,21.27
2018-12-12T04:49:35.307Z,22.93
2018-12-12T04:52:03.439Z,21.97
2018-12-12T04:54:31.507Z,20.07
2018-12-12T04:56:59.583Z,19.77
2018-12-12T04:59:27.731Z,20.03
2018-12-12T05:01:56.375Z,20.50
2018-12-12T05:04:24.489Z,19.80
2018-12-12T05:06:52.581Z,18.63
2018-12-12T05:09:20.673Z,20.40
2018-12-12T05:11:48.743Z,19.87
2018-12-12T05:14:16.833Z,20.93
2018-12-12T05:16:45.080Z,24.97
2018-12-12T05:19:13.227Z,21.50
2018-12-12T05:21:41.311Z,20.73
2018-12-12T05:24:10.388Z,18.87
2018-12-12T05:26:38.468Z,19.20
2018-12-12T05:29:06.600Z,17.87
2018-12-12T05:31:34.750Z,18.60
2018-12-12T05:34:03.412Z,19.07
2018-12-12T05:36:31.505Z,17.77
2018-12-12T05:39:00.118Z,19.13
2018-12-12T05:41:28.231Z,18.83
2018-12-12T05:43:57.694Z,19.17
2018-12-12T05:46:25.960Z,20.13
2018-12-12T05:48:54.111Z,18.80
2018-12-12T05:51:22.179Z,20.80
2018-12-12T05:53:50.258Z,22.95
2018-12-12T05:56:18.338Z,19.77
2018-12-12T05:58:46.566Z,19.60
2018-12-12T06:01:14.676Z,18.80
2018-12-12T06:03:44.427Z,19.77
2018-12-12T06:06:12.507Z,19.83
2018-12-12T06:08:40.597Z,19.03
2018-12-12T06:11:08.667Z,18.47
2018-12-12T06:13:36.802Z,18.80
2018-12-12T06:16:05.315Z,18.90
2018-12-12T06:18:33.471Z,18.60
2018-12-12T06:21:01.556Z,19.27
2018-12-12T06:23:29.635Z,19.53
2018-12-12T06:25:58.296Z,18.70
2018-12-12T06:28:26.470Z,17.77
2018-12-12T06:30:54.855Z,17.60
2018-12-12T06:33:22.941Z,18.47
2018-12-12T06:35:51.070Z,18.30
2018-12-12T06:38:19.708Z,18.43
2018-12-12T06:40:48.036Z,18.60
2018-12-12T06:43:16.191Z,17.60
2018-12-12T06:45:44.301Z,17.53
2018-12-12T06:48:13.031Z,16.35
2018-12-12T06:50:41.235Z,17.67
2018-12-12T06:53:09.335Z,17.80
2018-12-12T06:55:37.435Z,18.00
2018-12-12T06:58:05.652Z,17.40
2018-12-12T07:00:33.768Z,16.10
2018-12-12T07:03:01.939Z,16.80
2018-12-12T07:05:31.820Z,17.60
2018-12-12T07:07:59.987Z,17.20
2018-12-12T07:10:28.074Z,16.30
2018-12-12T07:12:56.232Z,16.10
2018-12-12T07:15:24.428Z,17.20
2018-12-12T07:17:52.525Z,18.70
2018-12-12T07:20:20.703Z,17.87
2018-12-12T07:22:49.007Z,17.20
2018-12-12T07:25:17.135Z,18.73
2018-12-12T07:27:45.311Z,22.27
2018-12-12T07:30:13.384Z,19.53
2018-12-12T07:32:41.455Z,18.53
2018-12-12T07:35:09.707Z,17.55
2018-12-12T07:37:37.852Z,17.57
2018-12-12T07:40:06.680Z,18.50
2018-12-12T07:42:35.727Z,16.60
2018-12-12T07:45:03.959Z,16.27
2018-12-12T07:47:33.160Z,15.13
2018-12-12T07:50:01.263Z,15.18
2018-12-12T07:52:29.344Z,13.77
2018-12-12T07:54:57.440Z,13.57
2018-12-12T07:57:25.629Z,13.50
2018-12-12T07:59:53.827Z,16.00
2018-12-12T08:02:22.919Z,17.45
2018-12-12T08:04:51.023Z,17.00
2018-12-12T08:07:20.275Z,16.47
2018-12-12T08:09:48.348Z,16.00
2018-12-12T08:12:16.442Z,15.93
2018-12-12T08:14:44.648Z,16.13
2018-12-12T08:17:12.827Z,16.60
2018-12-12T08:19:40.922Z,15.57
2018-12-12T08:22:09.016Z,15.50
2018-12-12T08:24:37.093Z,13.20
2018-12-12T08:27:05.203Z,18.73
2018-12-12T08:29:33.305Z,16.83
2018-12-12T08:32:01.400Z,11.88
2018-12-12T08:34:31.519Z,12.23
2018-12-12T08:37:00.627Z,12.43
2018-12-12T08:39:29.818Z,12.93
2018-12-12T08:41:57.897Z,13.00
2018-12-12T08:44:25.983Z,12.80
2018-12-12T08:46:55.892Z,13.50
2018-12-12T08:49:24.679Z,13.43
2018-12-12T08:51:52.855Z,13.27
2018-12-12T08:54:22.169Z,13.00
2018-12-12T08:56:51.504Z,13.20
2018-12-12T08:59:19.602Z,13.20
2018-12-12T09:01:47.707Z,12.70
2018-12-12T09:04:16.351Z,13.15
2018-12-12T09:06:45.211Z,12.73
2018-12-12T09:09:14.519Z,14.45
2018-12-12T09:11:43.507Z,14.93
2018-12-12T09:14:13.375Z,14.50
2018-12-12T09:16:41.451Z,14.10
2018-12-12T09:19:09.519Z,13.60
2018-12-12T09:21:37.636Z,15.10
2018-12-12T09:24:05.729Z,14.47
2018-12-12T09:26:34.295Z,14.27
2018-12-12T09:29:02.356Z,13.62
2018-12-12T09:31:30.428Z,13.60
2018-12-12T09:33:58.496Z,13.60
2018-12-12T09:36:27.504Z,12.97
2018-12-12T09:38:55.636Z,13.30
2018-12-12T09:41:23.811Z,12.70
2018-12-12T09:43:51.931Z,10.80
2018-12-12T09:46:20.048Z,11.23
2018-12-12T09:48:48.680Z,11.70
2018-12-12T09:51:16.899Z,11.67
2018-12-12T09:54:02.787Z,10.47
2018-12-12T09:56:31.075Z,9.90
2018-12-12T09:58:59.147Z,10.18
2018-12-12T10:01:27.227Z,9.40
2018-12-12T10:03:55.672Z,8.93
2018-12-12T10:06:23.771Z,9.50
2018-12-12T10:08:53.366Z,10.08
2018-12-12T10:11:21.439Z,8.47
2018-12-12T10:13:49.528Z,8.97
2018-12-12T10:16:18.914Z,8.70
2018-12-12T10:18:47.173Z,6.97
2018-12-12T10:21:15.879Z,8.20
2018-12-12T10:23:44.010Z,7.97
2018-12-12T10:26:12.865Z,7.03
2018-12-12T10:28:41.039Z,7.83
2018-12-12T10:31:09.619Z,8.10
2018-12-12T10:33:38.022Z,7.43
2018-12-12T10:36:06.719Z,7.07
2018-12-12T10:38:34.872Z,6.90
2018-12-12T10:41:05.115Z,7.50
2018-12-12T10:43:33.271Z,8.87
2018-12-12T10:46:01.351Z,9.85
2018-12-12T10:48:34.401Z,8.08
2018-12-12T10:51:02.987Z,10.00
2018-12-12T10:53:31.127Z,8.57
2018-12-12T10:56:01.294Z,6.60
2018-12-12T10:58:36.276Z,7.47
2018-12-12T11:01:12.045Z,8.17
2018-12-12T11:03:44.344Z,5.05
2018-12-12T11:06:12.217Z,7.90
2018-12-12T11:08:40.443Z,6.17
2018-12-12T11:11:08.588Z,7.60
2018-12-12T11:13:36.787Z,7.20
2018-12-12T11:16:05.234Z,6.70
2018-12-12T11:18:33.712Z,5.73
2018-12-12T11:21:01.781Z,5.53
2018-12-12T11:23:29.838Z,5.77
2018-12-12T11:25:57.917Z,7.30
2018-12-12T11:28:26.020Z,5.70
2018-12-12T11:30:55.231Z,5.93
2018-12-12T11:33:23.429Z,5.80
2018-12-12T11:35:51.628Z,7.07
2018-12-12T11:38:19.834Z,6.77
2018-12-12T11:40:47.991Z,6.73
2018-12-12T11:43:16.824Z,5.97
2018-12-12T11:45:44.985Z,6.00
2018-12-12T11:48:13.149Z,4.35
2018-12-12T11:50:41.304Z,3.40
2018-12-12T11:53:10.235Z,3.08
2018-12-12T11:55:43.273Z,2.20
2018-12-12T11:58:12.419Z,2.77
2018-12-12T12:00:40.485Z,2.20
2018-12-12T12:03:08.570Z,2.13
2018-12-12T12:05:36.707Z,4.20
2018-12-12T12:08:04.817Z,3.43
2018-12-12T12:10:32.911Z,3.70
2018-12-12T12:13:01.023Z,2.60
2018-12-12T12:15:29.099Z,2.70
2018-12-12T12:17:57.927Z,2.30
2018-12-12T12:20:26.439Z,2.43
2018-12-12T12:22:56.928Z,2.07
2018-12-12T12:25:28.886Z,2.00
2018-12-12T12:28:03.295Z,2.27
2018-12-12T12:30:31.470Z,1.47
2018-12-12T12:32:59.521Z,2.30
2018-12-12T12:35:44.312Z,1.80
2018-12-12T12:38:12.447Z,2.20
2018-12-12T12:40:40.548Z,3.47
2018-12-12T12:43:08.651Z,1.67
2018-12-12T12:45:36.773Z,2.10
2018-12-12T12:48:04.910Z,1.80
2018-12-12T12:50:33.042Z,1.97
2018-12-12T12:53:02.599Z,1.60
2018-12-12T12:55:30.670Z,2.10
2018-12-12T12:58:00.355Z,1.62
2018-12-12T13:00:28.451Z,2.10
2018-12-12T13:02:56.609Z,2.57
2018-12-12T13:05:28.046Z,2.23
2018-12-12T13:07:56.720Z,2.50
2018-12-12T13:10:25.503Z,1.82
2018-12-12T13:12:54.047Z,2.10
2018-12-12T13:15:22.439Z,2.20
2018-12-12T13:17:50.501Z,2.20
2018-12-12T13:20:18.697Z,1.77
2018-12-12T13:22:46.928Z,2.00
2018-12-12T13:25:15.049Z,2.00
2018-12-12T13:27:43.143Z,4.73
2018-12-12T13:30:11.272Z,5.00
2018-12-12T13:32:39.366Z,2.35
2018-12-12T13:35:07.543Z,1.70
2018-12-12T13:37:36.409Z,1.80
2018-12-12T13:40:05.323Z,4.93
2018-12-12T13:42:33.463Z,2.05
2018-12-12T13:45:01.725Z,4.43
2018-12-12T13:47:29.823Z,10.43
2018-12-12T13:49:59.055Z,25.27
2018-12-12T13:52:27.147Z,26.87
2018-12-12T13:54:55.220Z,36.08
2018-12-12T13:57:23.427Z,26.90
2018-12-12T13:59:51.965Z,60.57
2018-12-12T14:02:20.126Z,49.43
2018-12-12T14:04:48.524Z,22.80
2018-12-12T14:07:16.951Z,23.23
2018-12-12T14:09:45.079Z,21.27
2018-12-12T14:12:17.332Z,14.00
2018-12-12T14:14:45.668Z,17.57
2018-12-12T14:17:14.106Z,4.85
2018-12-12T14:19:42.517Z,3.33
2018-12-12T14:22:16.274Z,2.40
2018-12-12T14:24:45.691Z,1.80
2018-12-12T14:27:14.322Z,2.20
2018-12-12T15:54:49.107Z,4.87
2018-12-12T15:57:17.235Z,4.43
2018-12-12T15:59:45.338Z,4.33
2018-12-12T16:02:14.769Z,4.23
2018-12-12T16:04:48.746Z,5.20
2018-12-12T16:07:13.467Z,6.53
2018-12-12T16:09:41.577Z,7.83
2018-12-12T16:12:10.080Z,5.40
2018-12-12T16:14:39.934Z,11.00
2018-12-12T16:17:08.199Z,9.33
2018-12-12T16:19:36.355Z,7.90
2018-12-12T16:22:04.462Z,16.17
2018-12-12T16:24:33.653Z,12.83
2018-12-12T16:27:02.010Z,16.40
2018-12-12T16:29:30.147Z,10.10
2018-12-12T16:31:58.283Z,6.93
2018-12-12T16:34:26.362Z,4.90
2018-12-12T16:36:55.023Z,3.43
2018-12-12T16:39:23.968Z,4.20
2018-12-12T16:41:52.595Z,3.10
2018-12-12T16:44:20.694Z,4.00
2018-12-12T16:46:50.427Z,3.83
2018-12-12T16:49:18.660Z,4.87
2018-12-12T16:51:46.740Z,5.07
2018-12-12T16:54:14.844Z,3.30
2018-12-12T16:56:43.488Z,2.90
2018-12-12T16:59:11.592Z,3.67
2018-12-12T17:01:39.701Z,3.20
2018-12-12T17:04:07.790Z,2.67
2018-12-12T17:06:36.821Z,6.57
2018-12-12T17:09:07.449Z,16.37
2018-12-12T17:11:35.608Z,38.70
2018-12-12T17:14:03.892Z,47.87
2018-12-12T17:16:38.449Z,57.23
2018-12-12T17:19:06.575Z,23.60
2018-12-12T17:21:36.914Z,6.30
2018-12-12T17:24:04.979Z,7.47
2018-12-12T17:26:33.680Z,7.87
2018-12-12T17:29:02.059Z,5.33
2018-12-12T17:31:37.474Z,3.85
2018-12-12T17:34:06.018Z,3.83
2018-12-12T17:36:36.088Z,3.90
2018-12-12T17:39:06.476Z,3.83
2018-12-12T17:41:46.803Z,3.00
2018-12-12T17:44:14.887Z,3.13
2018-12-12T17:46:47.664Z,3.70
2018-12-12T17:49:16.647Z,3.10
2018-12-12T17:51:44.798Z,5.07
2018-12-12T17:54:13.014Z,3.30
2018-12-12T17:56:42.491Z,3.80
2018-12-12T17:59:10.655Z,5.20
2018-12-12T18:01:42.064Z,7.60
2018-12-12T18:04:15.987Z,3.03
2018-12-12T18:06:44.707Z,4.27
2018-12-12T18:09:12.798Z,3.75
2018-12-12T18:11:45.865Z,2.83
2018-12-12T18:14:13.946Z,2.98
2018-12-12T18:16:42.972Z,3.30
2018-12-12T18:19:12.380Z,4.40
2018-12-12T18:21:40.503Z,5.07
2018-12-12T18:24:09.558Z,3.12
2018-12-12T18:26:37.875Z,2.30
2018-12-12T18:29:07.541Z,2.40
2018-12-12T18:31:35.880Z,2.10
2018-12-12T18:34:06.501Z,2.23
2018-12-12T18:36:34.663Z,2.77
2018-12-12T18:39:03.905Z,2.90
2018-12-12T18:41:31.987Z,3.20
2018-12-12T18:44:00.092Z,3.00
2018-12-12T18:46:28.291Z,2.90
2018-12-12T18:48:56.835Z,3.13
2018-12-12T18:51:25.067Z,3.30
2018-12-12T18:53:53.159Z,2.97
2018-12-12T18:56:21.463Z,2.80
2018-12-12T18:58:49.640Z,3.30
2018-12-12T19:01:17.811Z,2.97
2018-12-12T19:03:46.499Z,3.30
2018-12-12T19:06:14.731Z,3.87
2018-12-12T19:08:42.843Z,4.10
2018-12-12T19:11:11.007Z,4.13
2018-12-12T19:13:39.071Z,2.23
2018-12-12T19:16:07.199Z,2.50
2018-12-12T19:18:35.900Z,2.60
2018-12-12T19:21:04.012Z,2.87
2018-12-12T19:23:32.271Z,2.10
2018-12-12T19:26:00.347Z,2.05
2018-12-12T19:28:28.431Z,2.47
2018-12-12T19:30:56.743Z,2.20
2018-12-12T19:33:24.975Z,1.83
2018-12-12T19:35:53.067Z,7.43
2018-12-12T19:38:21.458Z,8.70
2018-12-12T19:40:49.551Z,8.53
2018-12-12T19:43:17.707Z,4.87
2018-12-12T19:45:46.850Z,2.37
2018-12-12T19:48:16.945Z,3.45
2018-12-12T19:50:46.557Z,13.47
2018-12-12T19:53:16.178Z,9.90
2018-12-12T19:55:45.457Z,5.77
2018-12-12T19:58:14.177Z,2.40
2018-12-12T20:00:42.976Z,1.90
2018-12-12T20:03:13.354Z,5.27
2018-12-12T20:05:41.612Z,18.83
2018-12-12T20:08:09.922Z,10.57
2018-12-12T20:10:40.479Z,3.42
2018-12-12T20:13:08.563Z,2.43
